createdAt,value
2023-01-13T00:01:32.072Z,42.20
2023-01-13T00:04:01.100Z,43.50
2023-01-13T00:06:29.425Z,47.20
2023-01-13T00:08:57.949Z,45.90
2023-01-13T00:11:26.531Z,47.10
2023-01-13T00:13:54.897Z,41.40
2023-01-13T00:16:23.182Z,38.80
2023-01-13T00:18:51.411Z,43.20
2023-01-13T00:21:23.223Z,42.40
2023-01-13T00:23:55.548Z,43.80
2023-01-13T00:26:27.586Z,41.00
2023-01-13T00:29:00.143Z,39.30
2023-01-13T00:31:30.228Z,40.50
2023-01-13T00:34:02.320Z,43.70
2023-01-13T00:36:31.155Z,42.20
2023-01-13T00:38:59.960Z,39.80
2023-01-13T00:41:28.145Z,41.30
2023-01-13T00:43:56.252Z,42.20
2023-01-13T00:46:24.389Z,39.50
2023-01-13T00:48:52.967Z,41.00
2023-01-13T00:51:22.001Z,39.40
2023-01-13T00:53:52.237Z,37.40
2023-01-13T00:56:40.771Z,37.10
2023-01-13T00:59:14.004Z,34.40
2023-01-13T01:04:33.852Z,37.40
2023-01-13T01:07:01.929Z,41.60
2023-01-13T01:09:33.516Z,41.40
2023-01-13T01:12:01.960Z,45.40
2023-01-13T01:14:30.085Z,35.30
2023-01-13T01:16:58.170Z,39.60
2023-01-13T01:19:26.280Z,37.90
2023-01-13T01:21:55.062Z,33.40
2023-01-13T01:24:23.239Z,32.80
2023-01-13T01:26:51.345Z,31.00
2023-01-13T01:29:19.525Z,30.80
2023-01-13T01:31:47.720Z,33.10
2023-01-13T01:34:15.889Z,30.00
2023-01-13T01:36:44.053Z,30.50
2023-01-13T01:39:12.195Z,31.00
2023-01-13T01:42:00.565Z,30.00
2023-01-13T01:44:52.485Z,28.60
2023-01-13T01:47:22.207Z,33.50
2023-01-13T01:49:50.915Z,33.20
2023-01-13T01:52:27.991Z,32.60
2023-01-13T01:55:10.649Z,28.60
2023-01-13T01:58:01.980Z,28.90
2023-01-13T02:00:32.263Z,29.80
2023-01-13T02:03:01.424Z,31.60
2023-01-13T02:05:29.618Z,27.40
2023-01-13T02:07:59.999Z,30.90
2023-01-13T02:10:30.209Z,26.00
2023-01-13T02:13:05.046Z,26.70
2023-01-13T02:15:51.133Z,24.80
2023-01-13T02:19:02.868Z,26.70
2023-01-13T02:22:08.200Z,29.30
2023-01-13T02:25:18.073Z,25.80
2023-01-13T02:28:11.269Z,28.30
2023-01-13T02:31:27.231Z,26.20
2023-01-13T02:34:15.013Z,23.90
2023-01-13T02:36:59.405Z,28.20
2023-01-13T02:39:39.930Z,23.70
2023-01-13T02:42:36.548Z,26.80
2023-01-13T02:45:13.869Z,24.40
2023-01-13T02:47:46.324Z,27.70
2023-01-13T02:50:27.960Z,28.20
2023-01-13T02:53:19.677Z,34.60
2023-01-13T02:55:53.434Z,34.40
2023-01-13T02:58:27.544Z,28.40
2023-01-13T03:00:56.025Z,28.30
2023-01-13T03:03:24.938Z,25.20
2023-01-13T03:06:10.489Z,22.70
2023-01-13T03:09:32.520Z,28.50
2023-01-13T03:12:22.826Z,27.00
2023-01-13T03:15:08.582Z,27.50
2023-01-13T03:18:07.565Z,28.40
2023-01-13T03:20:47.758Z,28.80
2023-01-13T03:23:31.949Z,26.00
2023-01-13T03:26:17.026Z,30.30
2023-01-13T03:28:54.276Z,31.70
2023-01-13T03:31:31.891Z,26.70
2023-01-13T03:34:16.124Z,27.60
2023-01-13T03:36:49.335Z,29.30
2023-01-13T03:41:59.907Z,27.70
2023-01-13T03:44:38.212Z,35.10
2023-01-13T03:47:12.264Z,31.40
2023-01-13T03:49:57.316Z,35.00
2023-01-13T03:52:32.638Z,27.70
2023-01-13T03:55:12.003Z,30.30
2023-01-13T03:57:49.373Z,30.90
2023-01-13T04:00:19.901Z,27.30
2023-01-13T04:03:23.124Z,31.10
2023-01-13T04:06:03.658Z,29.80
2023-01-13T04:08:36.314Z,28.40
2023-01-13T04:11:14.632Z,31.60
2023-01-13T04:13:45.156Z,35.50
2023-01-13T04:16:13.713Z,28.10
2023-01-13T04:18:41.927Z,31.30
2023-01-13T04:21:10.155Z,29.00
2023-01-13T04:23:38.410Z,27.50
2023-01-13T04:26:06.549Z,27.50
2023-01-13T04:28:35.115Z,31.90
2023-01-13T04:31:03.290Z,28.30
2023-01-13T04:33:31.423Z,32.80
2023-01-13T04:35:59.567Z,27.50
2023-01-13T04:38:27.885Z,32.40
2023-01-13T04:40:56.007Z,33.50
2023-01-13T04:43:24.144Z,30.40
2023-01-13T04:45:52.334Z,30.00
2023-01-13T04:48:20.523Z,32.20
2023-01-13T04:50:48.648Z,39.00
2023-01-13T04:53:16.723Z,36.60
2023-01-13T04:55:44.979Z,34.30
2023-01-13T04:58:13.096Z,35.70
2023-01-13T05:00:41.507Z,32.20
2023-01-13T05:03:10.025Z,41.50
2023-01-13T05:05:38.245Z,40.60
2023-01-13T05:08:06.430Z,39.20
2023-01-13T05:10:34.736Z,44.10
2023-01-13T05:13:21.429Z,45.20
2023-01-13T05:16:24.871Z,44.80
2023-01-13T05:18:53.057Z,50.30
2023-01-13T05:21:40.880Z,48.60
2023-01-13T05:24:28.188Z,44.40
2023-01-13T05:26:56.355Z,38.70
2023-01-13T05:29:24.466Z,38.40
2023-01-13T05:31:52.587Z,38.90
2023-01-13T05:34:20.938Z,43.10
2023-01-13T05:36:49.198Z,40.30
2023-01-13T05:39:17.294Z,42.60
2023-01-13T05:42:04.194Z,35.30
2023-01-13T05:44:32.350Z,40.70
2023-01-13T05:47:00.435Z,40.90
2023-01-13T05:49:28.547Z,43.90
2023-01-13T05:51:56.767Z,40.30
2023-01-13T05:54:25.168Z,45.10
2023-01-13T05:56:53.288Z,38.40
2023-01-13T05:59:21.420Z,36.20
2023-01-13T06:01:50.667Z,40.80
2023-01-13T06:04:18.889Z,40.30
2023-01-13T06:06:47.392Z,36.80
2023-01-13T06:09:15.644Z,36.50
2023-01-13T06:11:44.121Z,32.60
2023-01-13T06:14:12.200Z,37.00
2023-01-13T06:16:40.462Z,32.30
2023-01-13T06:19:11.814Z,36.40
2023-01-13T06:21:40.692Z,55.50
2023-01-13T06:24:09.282Z,89.80
2023-01-13T06:26:41.572Z,82.40
2023-01-13T06:29:10.240Z,53.30
2023-01-13T06:31:39.658Z,48.70
2023-01-13T06:34:13.375Z,42.20
2023-01-13T06:36:48.899Z,44.20
2023-01-13T06:39:21.848Z,44.40
2023-01-13T06:42:12.994Z,43.20
2023-01-13T06:44:41.190Z,41.20
2023-01-13T06:47:09.496Z,38.10
2023-01-13T06:49:37.595Z,36.80
2023-01-13T06:52:05.994Z,37.50
2023-01-13T06:54:34.856Z,42.20
2023-01-13T06:57:03.163Z,38.50
2023-01-13T06:59:34.387Z,42.00
2023-01-13T07:02:03.067Z,41.50
2023-01-13T07:04:31.324Z,44.50
2023-01-13T07:07:00.096Z,42.30
2023-01-13T07:09:28.174Z,41.30
2023-01-13T07:11:56.297Z,41.90
2023-01-13T07:14:43.111Z,42.80
2023-01-13T07:17:11.306Z,41.30
2023-01-13T07:19:39.476Z,40.50
2023-01-13T07:22:07.677Z,46.20
2023-01-13T07:24:35.830Z,45.30
2023-01-13T07:27:04.118Z,45.40
2023-01-13T07:29:32.335Z,46.40
2023-01-13T07:32:01.522Z,55.00
2023-01-13T07:34:29.688Z,49.00
2023-01-13T07:36:57.803Z,49.90
2023-01-13T07:39:25.943Z,54.50
2023-01-13T07:42:12.945Z,59.40
2023-01-13T07:44:41.101Z,51.90
2023-01-13T07:47:11.287Z,52.30
2023-01-13T07:49:39.482Z,45.50
2023-01-13T07:52:07.653Z,53.50
2023-01-13T07:54:40.955Z,50.90
2023-01-13T07:57:09.490Z,47.40
2023-01-13T07:59:37.639Z,52.90
2023-01-13T08:02:06.321Z,49.10
2023-01-13T08:04:34.687Z,46.70
2023-01-13T08:07:04.583Z,54.90
2023-01-13T08:09:32.907Z,48.40
2023-01-13T08:12:19.868Z,48.50
2023-01-13T08:14:48.018Z,46.90
2023-01-13T08:17:16.121Z,56.40
2023-01-13T08:19:44.225Z,56.20
2023-01-13T08:22:12.336Z,48.60
2023-01-13T08:24:40.450Z,44.20
2023-01-13T08:27:08.622Z,39.80
2023-01-13T08:29:36.718Z,45.00
2023-01-13T08:32:05.141Z,40.40
2023-01-13T08:34:33.284Z,44.00
2023-01-13T08:37:01.464Z,45.70
2023-01-13T08:39:29.635Z,42.30
2023-01-13T08:41:58.786Z,55.10
2023-01-13T08:44:29.757Z,63.30
2023-01-13T08:46:58.443Z,60.60
2023-01-13T08:49:26.855Z,63.80
2023-01-13T08:51:55.037Z,58.40
2023-01-13T08:54:23.213Z,60.20
2023-01-13T08:56:51.528Z,48.30
2023-01-13T08:59:20.753Z,52.60
2023-01-13T09:01:49.641Z,56.90
2023-01-13T09:04:22.861Z,55.40
2023-01-13T09:09:19.611Z,57.30
2023-01-13T09:12:09.829Z,55.30
2023-01-13T09:14:39.962Z,64.00
2023-01-13T09:17:08.143Z,59.50
2023-01-13T09:19:36.891Z,57.50
2023-01-13T09:22:05.038Z,47.60
2023-01-13T09:24:33.247Z,43.50
2023-01-13T09:27:01.433Z,45.10
2023-01-13T09:29:29.752Z,40.80
2023-01-13T09:32:01.202Z,47.50
2023-01-13T09:34:47.844Z,43.10
2023-01-13T09:37:16.194Z,42.60
2023-01-13T09:39:44.493Z,46.30
2023-01-13T09:42:45.967Z,41.60
2023-01-13T09:45:25.329Z,40.10
2023-01-13T09:48:01.053Z,31.10
2023-01-13T09:50:51.007Z,19.30
2023-01-13T09:53:29.236Z,22.90
2023-01-13T09:55:57.419Z,29.50
2023-01-13T09:58:26.012Z,39.30
2023-01-13T10:01:16.534Z,25.00
2023-01-13T10:03:45.444Z,24.30
2023-01-13T10:06:38.829Z,28.40
2023-01-13T10:09:15.933Z,22.10
2023-01-13T10:12:05.954Z,29.10
2023-01-13T10:14:50.699Z,18.30
2023-01-13T10:17:43.165Z,16.70
2023-01-13T10:20:41.827Z,17.00
2023-01-13T10:23:47.252Z,19.50
2023-01-13T10:26:58.537Z,29.00
2023-01-13T10:29:30.263Z,22.20
2023-01-13T10:32:00.207Z,24.60
2023-01-13T10:34:29.514Z,25.90
2023-01-13T10:37:09.564Z,24.90
2023-01-13T10:39:47.291Z,25.50
2023-01-13T10:42:22.945Z,27.50
2023-01-13T10:44:57.063Z,33.50
2023-01-13T10:47:34.482Z,23.30
2023-01-13T10:50:11.656Z,21.70
2023-01-13T10:52:55.560Z,23.40
2023-01-13T10:55:33.228Z,27.30
2023-01-13T10:58:20.571Z,28.80
2023-01-13T11:00:58.457Z,30.50
2023-01-13T11:03:34.424Z,35.40
2023-01-13T11:06:02.677Z,38.90
2023-01-13T11:08:45.517Z,25.50
2023-01-13T11:11:35.109Z,22.60
2023-01-13T11:14:27.842Z,21.90
2023-01-13T11:16:59.092Z,21.30
2023-01-13T11:19:30.894Z,19.70
2023-01-13T11:22:23.517Z,21.50
2023-01-13T11:25:09.919Z,21.10
2023-01-13T11:28:17.217Z,20.90
2023-01-13T11:31:47.142Z,20.30
2023-01-13T11:34:45.293Z,16.50
2023-01-13T11:37:26.356Z,15.90
2023-01-13T11:40:21.582Z,19.10
2023-01-13T11:43:18.956Z,20.50
2023-01-13T11:45:58.379Z,20.00
2023-01-13T11:48:35.191Z,19.70
2023-01-13T11:51:46.890Z,19.10
2023-01-13T11:54:14.972Z,33.80
2023-01-13T11:57:07.657Z,19.80
2023-01-13T11:59:57.152Z,19.00
2023-01-13T12:02:37.344Z,15.60
2023-01-13T12:05:29.665Z,15.50
2023-01-13T12:08:42.783Z,14.60
2023-01-13T12:12:08.180Z,16.70
2023-01-13T12:14:57.487Z,15.80
2023-01-13T12:17:38.538Z,14.40
2023-01-13T12:20:39.178Z,17.10
2023-01-13T12:23:34.280Z,12.90
2023-01-13T12:26:18.782Z,12.70
2023-01-13T12:29:01.579Z,13.60
2023-01-13T12:31:31.865Z,16.30
2023-01-13T12:34:30.784Z,13.40
2023-01-13T12:37:54.824Z,16.80
2023-01-13T12:40:34.262Z,15.50
2023-01-13T12:43:43.679Z,15.30
2023-01-13T12:46:24.550Z,11.50
2023-01-13T12:48:56.884Z,9.80
2023-01-13T12:51:37.787Z,10.30
2023-01-13T12:54:37.793Z,14.10
2023-01-13T12:57:25.173Z,13.10
2023-01-13T13:00:05.170Z,14.50
2023-01-13T13:02:39.144Z,14.60
2023-01-13T13:05:22.758Z,15.10
2023-01-13T13:08:10.781Z,12.40
2023-01-13T13:10:46.803Z,14.00
2023-01-13T13:13:49.115Z,13.50
2023-01-13T13:16:26.452Z,14.00
2023-01-13T13:19:22.560Z,15.20
2023-01-13T13:22:09.902Z,17.00
2023-01-13T13:24:40.284Z,15.20
2023-01-13T13:27:50.107Z,14.10
2023-01-13T13:30:30.273Z,15.20
2023-01-13T13:33:20.422Z,12.50
2023-01-13T13:36:25.474Z,13.00
2023-01-13T13:39:34.433Z,13.00
2023-01-13T13:42:46.585Z,15.20
2023-01-13T13:45:40.288Z,15.40
2023-01-13T13:48:34.392Z,14.30
2023-01-13T13:51:25.160Z,13.00
2023-01-13T13:53:54.773Z,15.20
2023-01-13T13:56:27.394Z,14.70
2023-01-13T13:58:55.714Z,16.10
2023-01-13T14:01:38.540Z,18.80
2023-01-13T14:04:37.175Z,15.80
2023-01-13T14:07:22.006Z,13.50
2023-01-13T14:09:54.450Z,16.20
2023-01-13T14:12:26.400Z,15.20
2023-01-13T14:14:57.614Z,14.30
2023-01-13T14:17:29.343Z,14.30
2023-01-13T14:20:10.545Z,17.20
2023-01-13T14:22:38.689Z,20.40
2023-01-13T14:25:45.820Z,15.40
2023-01-13T14:28:13.925Z,17.00
2023-01-13T14:30:43.184Z,46.30
2023-01-13T14:33:26.939Z,46.40
2023-01-13T14:36:20.065Z,272.40
2023-01-13T14:39:03.262Z,27.80
2023-01-13T14:41:48.327Z,25.70
2023-01-13T14:44:36.450Z,22.70
2023-01-13T14:47:20.176Z,23.90
2023-01-13T14:50:02.498Z,20.20
2023-01-13T14:52:34.678Z,23.30
2023-01-13T14:55:10.100Z,23.00
2023-01-13T14:57:44.064Z,21.10
2023-01-13T15:00:15.210Z,23.10
2023-01-13T15:02:58.415Z,21.50
2023-01-13T15:05:26.512Z,19.50
2023-01-13T15:08:09.137Z,20.70
2023-01-13T15:11:05.937Z,20.30
2023-01-13T15:14:01.504Z,24.20
2023-01-13T15:16:33.372Z,20.90
2023-01-13T15:21:31.647Z,41.70
2023-01-13T15:23:59.977Z,60.90
2023-01-13T15:26:30.833Z,57.60
2023-01-13T15:29:00.807Z,103.20
2023-01-13T15:31:29.211Z,83.70
2023-01-13T15:33:58.825Z,81.30
2023-01-13T15:36:31.143Z,47.20
2023-01-13T15:39:01.337Z,80.30
2023-01-13T15:41:48.017Z,64.00
2023-01-13T15:44:34.963Z,111.20
2023-01-13T15:47:07.686Z,130.50
2023-01-13T15:49:40.216Z,184.50
2023-01-13T15:52:24.589Z,119.30
2023-01-13T15:54:54.107Z,148.30
2023-01-13T15:57:25.586Z,90.10
2023-01-13T16:00:00.873Z,86.70
2023-01-13T16:02:31.001Z,54.70
2023-01-13T16:04:59.428Z,105.40
2023-01-13T16:07:27.711Z,153.50
2023-01-13T16:09:55.950Z,149.30
2023-01-13T16:12:24.117Z,117.30
2023-01-13T16:14:52.235Z,133.30
2023-01-13T16:17:24.935Z,105.20
2023-01-13T16:19:53.089Z,82.30
2023-01-13T16:22:21.829Z,142.70
2023-01-13T16:24:50.063Z,121.70
2023-01-13T16:27:25.215Z,144.00
2023-01-13T16:29:53.431Z,112.10
2023-01-13T16:32:21.732Z,114.90
2023-01-13T16:34:50.168Z,102.50
2023-01-13T16:37:24.985Z,89.10
2023-01-13T16:39:54.679Z,87.60
2023-01-13T16:42:23.223Z,81.00
2023-01-13T16:44:53.025Z,49.80
2023-01-13T16:47:22.888Z,49.00
2023-01-13T16:49:51.633Z,54.20
2023-01-13T16:52:19.773Z,77.20
2023-01-13T16:54:47.905Z,78.10
2023-01-13T16:57:15.980Z,68.40
2023-01-13T16:59:44.130Z,86.80
2023-01-13T17:02:16.345Z,52.80
2023-01-13T17:04:45.062Z,37.90
2023-01-13T17:07:16.944Z,49.60
2023-01-13T17:09:45.067Z,65.20
2023-01-13T17:12:13.157Z,51.90
2023-01-13T17:14:43.429Z,45.40
2023-01-13T17:17:29.829Z,42.90
2023-01-13T17:19:57.990Z,43.40
2023-01-13T17:22:26.144Z,35.90
2023-01-13T17:24:54.295Z,37.40
2023-01-13T17:27:23.253Z,36.20
2023-01-13T17:29:51.581Z,36.20
2023-01-13T17:32:21.404Z,39.90
2023-01-13T17:34:50.280Z,44.90
2023-01-13T17:37:18.556Z,39.70
2023-01-13T17:39:48.716Z,39.60
2023-01-13T17:42:17.295Z,43.40
2023-01-13T17:44:46.982Z,44.40
2023-01-13T17:47:15.209Z,44.90
2023-01-13T17:49:43.341Z,48.10
2023-01-13T17:52:11.483Z,40.60
2023-01-13T17:54:40.078Z,48.60
2023-01-13T17:57:08.890Z,46.40
2023-01-13T17:59:36.979Z,51.40
2023-01-13T18:02:05.324Z,160.90
2023-01-13T18:04:33.893Z,241.20
2023-01-13T18:07:02.016Z,110.50
2023-01-13T18:09:30.172Z,71.90
2023-01-13T18:11:58.923Z,62.20
2023-01-13T18:14:28.179Z,63.90
2023-01-13T18:16:56.326Z,70.30
2023-01-13T18:19:43.146Z,76.00
2023-01-13T18:22:32.961Z,73.90
2023-01-13T18:25:21.787Z,67.30
2023-01-13T18:27:50.094Z,66.10
2023-01-13T18:30:18.338Z,62.20
2023-01-13T18:32:46.480Z,76.20
2023-01-13T18:35:14.589Z,68.30
2023-01-13T18:37:43.098Z,63.80
2023-01-13T18:40:13.726Z,67.70
2023-01-13T18:42:54.987Z,64.60
2023-01-13T18:45:27.492Z,61.60
2023-01-13T18:47:58.713Z,58.30
2023-01-13T18:50:28.286Z,58.50
2023-01-13T18:52:57.012Z,59.90
2023-01-13T18:55:27.129Z,61.00
2023-01-13T18:57:56.285Z,57.90
2023-01-13T19:00:26.929Z,58.70
2023-01-13T19:05:35.919Z,55.40
2023-01-13T19:08:05.489Z,58.00
2023-01-13T19:10:33.759Z,51.40
2023-01-13T19:13:01.973Z,54.40
2023-01-13T19:15:30.673Z,53.60
2023-01-13T19:18:00.335Z,53.70
2023-01-13T19:20:28.679Z,53.30
2023-01-13T19:22:56.761Z,50.00
2023-01-13T19:25:24.939Z,49.40
2023-01-13T19:27:53.070Z,47.50
2023-01-13T19:30:21.340Z,44.20
2023-01-13T19:32:49.446Z,46.20
2023-01-13T19:35:18.137Z,42.20
2023-01-13T19:37:46.323Z,52.40
2023-01-13T19:40:14.785Z,61.80
2023-01-13T19:43:02.911Z,62.90
2023-01-13T19:45:33.753Z,65.10
2023-01-13T19:48:04.651Z,59.70
2023-01-13T19:50:40.036Z,62.50
2023-01-13T19:53:15.639Z,57.20
2023-01-13T19:55:48.658Z,58.20
2023-01-13T19:58:20.711Z,60.10
2023-01-13T20:00:49.121Z,53.70
2023-01-13T20:03:23.709Z,54.10
2023-01-13T20:05:53.844Z,64.20
2023-01-13T20:08:22.964Z,59.70
2023-01-13T20:11:11.124Z,56.10
2023-01-13T20:13:39.252Z,46.60
2023-01-13T20:16:08.093Z,51.70
2023-01-13T20:18:37.207Z,56.70
2023-01-13T20:21:07.675Z,53.50
2023-01-13T20:23:36.365Z,60.50
2023-01-13T20:26:07.631Z,62.20
2023-01-13T20:28:38.895Z,76.20
2023-01-13T20:31:12.154Z,76.00
2023-01-13T20:36:16.157Z,77.60
2023-01-13T20:38:44.268Z,79.10
2023-01-13T20:41:30.948Z,80.20
2023-01-13T20:43:59.083Z,79.00
2023-01-13T20:46:27.702Z,72.70
2023-01-13T20:48:55.904Z,60.00
2023-01-13T20:51:24.002Z,57.40
2023-01-13T20:53:52.120Z,67.00
2023-01-13T20:56:20.236Z,66.70
2023-01-13T20:58:48.364Z,64.50
2023-01-13T21:01:16.612Z,67.40
2023-01-13T21:03:45.027Z,61.90
2023-01-13T21:06:16.245Z,59.70
2023-01-13T21:08:46.504Z,65.00
2023-01-13T21:11:37.344Z,59.50
2023-01-13T21:14:24.444Z,71.90
2023-01-13T21:16:52.553Z,56.20
2023-01-13T21:19:20.687Z,61.60
2023-01-13T21:21:48.830Z,75.50
2023-01-13T21:24:16.955Z,66.90
2023-01-13T21:26:45.120Z,69.80
2023-01-13T21:29:13.272Z,71.10
2023-01-13T21:31:41.509Z,76.50
2023-01-13T21:34:10.362Z,78.20
2023-01-13T21:36:38.557Z,101.60
2023-01-13T21:39:06.709Z,99.70
2023-01-13T21:41:53.302Z,114.50
2023-01-13T21:44:40.322Z,110.50
2023-01-13T21:47:35.869Z,98.50
2023-01-13T21:50:08.040Z,97.10
2023-01-13T21:52:37.416Z,83.10
2023-01-13T21:55:20.396Z,81.40
2023-01-13T21:57:54.218Z,83.70
2023-01-13T22:00:25.324Z,81.10
2023-01-13T22:02:54.202Z,67.10
2023-01-13T22:05:24.914Z,68.40
2023-01-13T22:07:53.181Z,79.90
2023-01-13T22:10:25.177Z,87.80
2023-01-13T22:13:00.455Z,82.50
2023-01-13T22:15:30.391Z,84.00
2023-01-13T22:17:59.796Z,78.30
2023-01-13T22:20:28.419Z,85.00
2023-01-13T22:22:58.153Z,89.00
2023-01-13T22:25:26.329Z,77.60
2023-01-13T22:28:03.473Z,75.70
2023-01-13T22:30:32.643Z,74.00
2023-01-13T22:33:00.886Z,74.70
2023-01-13T22:35:29.029Z,73.20
2023-01-13T22:37:58.230Z,119.90
2023-01-13T22:40:26.500Z,108.80
2023-01-13T22:42:54.635Z,83.70
2023-01-13T22:45:22.754Z,81.60
2023-01-13T22:47:51.029Z,79.70
2023-01-13T22:50:20.979Z,80.40
2023-01-13T22:52:49.104Z,58.10
2023-01-13T22:55:17.189Z,55.90
2023-01-13T22:57:48.159Z,57.40
2023-01-13T23:00:19.138Z,50.10
2023-01-13T23:02:47.566Z,45.00
2023-01-13T23:05:15.839Z,53.30
2023-01-13T23:07:43.920Z,52.80
2023-01-13T23:10:12.159Z,52.90
2023-01-13T23:12:40.312Z,45.00
2023-01-13T23:15:09.092Z,50.10
2023-01-13T23:17:37.291Z,46.30
2023-01-13T23:20:05.823Z,53.00
2023-01-13T23:22:38.562Z,46.70
2023-01-13T23:25:08.407Z,40.90
2023-01-13T23:27:37.386Z,37.50
2023-01-13T23:30:08.871Z,45.60
2023-01-13T23:32:36.994Z,45.90
2023-01-13T23:35:05.599Z,42.70
2023-01-13T23:37:34.381Z,48.00
2023-01-13T23:40:02.854Z,47.30
2023-01-13T23:42:31.054Z,45.00
2023-01-13T23:44:59.237Z,45.80
2023-01-13T23:47:28.659Z,40.90
2023-01-13T23:49:56.788Z,39.80
2023-01-13T23:52:24.986Z,41.40
2023-01-13T23:54:53.112Z,41.40
2023-01-13T23:57:21.233Z,42.50
2023-01-13T23:59:49.417Z,44.30
